Latest Weather Observations for Inglewood

IDQ60801

Issued at 8:05 pm EST Wednesday 1 October 2014 (issued every 30 minutes, with the page automatically refreshed every 10 minutes)

About weather observations | Map of weather stations | Latest weather observations for QLD | Other Formats
Station Details ID: 041097 Name: INGLEWOOD FOREST Lat: -28.34 Lon: 150.94 Height: 379.0 m
Data from the previous 72 hours. | See also: Recent months at Inglewood
Date/Time
EST
Temp
°C
App
Temp
°C
Dew
Point
Rel
Hum
%
Delta-T
°C
Wind Press
QNH
hPa
Press
MSL
hPa
Rain
since 9 am
mm
Dir
 
Spd
km/h
Gust
km/h
Spd
kts
Gust
kts
01/08:00pm - - - - - SW 17 26 9 14 - - 0.0
01/07:30pm - - - - - WSW 17 22 9 12 - - 0.0
01/07:00pm - - - - - SW 15 22 8 12 - - 0.0
01/06:30pm - - - - - SW 15 24 8 13 - - 0.0
01/06:00pm - - - - - SW 15 24 8 13 - - 0.0
01/05:30pm - - - - - SW 20 28 11 15 - - 0.0
01/05:00pm - - - - - SW 20 35 11 19 - - 0.0
01/04:30pm - - - - - SW 20 32 11 17 - - 0.0
01/04:00pm - - - - - SW 22 39 12 21 - - 0.0
01/03:30pm - - - - - SW 26 44 14 24 - - 0.0
01/03:00pm - - - - - SW 20 37 11 20 - - 0.0
01/02:30pm - - - - - SW 28 50 15 27 - - 0.0
01/02:28pm - - - - - SW 28 50 15 27 - - 0.0
01/02:00pm - - - - - WSW 26 41 14 22 - - 0.0
01/01:30pm - - - - - WSW 24 37 13 20 - - 0.0
01/01:00pm - - - - - WSW 28 44 15 24 - - 0.0
01/12:47pm - - - - - WSW 28 46 15 25 - - 0.0
01/12:30pm - - - - - SW 22 35 12 19 - - 0.0
01/12:00pm - - - - - W 19 28 10 15 - - 0.0
01/11:30am - - - - - W 24 35 13 19 - - 0.0
01/11:00am - - - - - WSW 17 32 9 17 - - 0.0
01/10:30am - - - - - W 13 32 7 17 - - 0.0
01/10:00am - - - - - S 7 15 4 8 - - 0.0
01/09:30am - - - - - WNW 13 19 7 10 - - 0.0
01/09:00am - - - - - WNW 13 20 7 11 - - 0.0
01/08:30am - - - - - NW 15 22 8 12 - - 0.0
01/08:00am - - - - - NW 15 22 8 12 - - 0.0
01/07:30am - - - - - NNW 13 22 7 12 - - 0.0
01/07:00am - - - - - NNW 9 15 5 8 - - 0.0
01/06:30am - - - - - NNE 7 9 4 5 - - 0.0
01/06:00am - - - - - ESE 4 7 2 4 - - 0.0
01/05:30am - - - - - S 7 11 4 6 - - 0.0
01/05:00am - - - - - WSW 9 13 5 7 - - 0.0
01/04:30am - - - - - NW 15 26 8 14 - - 0.0
01/04:00am - - - - - NNW 19 28 10 15 - - 0.0
01/03:30am - - - - - NNW 19 26 10 14 - - 0.0
01/03:00am - - - - - NNW 17 24 9 13 - - 0.0
01/02:30am - - - - - NNW 17 28 9 15 - - 0.0
01/02:00am - - - - - NNW 19 28 10 15 - - 0.0
01/01:30am - - - - - NNW 17 26 9 14 - - 0.0
01/01:00am - - - - - NNW 17 30 9 16 - - 0.0
01/12:30am - - - - - NNW 19 28 10 15 - - 0.0
01/12:00am - - - - - NNW 17 24 9 13 - - 0.0
 
Date/Time
EST
Temp
°C
App
Temp
°C
Dew
Point
Rel
Hum
%
Delta-T
°C
Wind Press
QNH
hPa
Press
MSL
hPa
Rain
since 9 am
mm
Dir
 
Spd
km/h
Gust
km/h
Spd
kts
Gust
kts
30/11:30pm - - - - - NNW 19 28 10 15 - - 0.0
30/11:00pm - - - - - NNW 17 32 9 17 - - 0.0
30/10:30pm - - - - - NNW 15 22 8 12 - - 0.0
30/10:00pm - - - - - NNW 13 19 7 10 - - 0.0
30/09:30pm - - - - - NNW 15 19 8 10 - - 0.0
30/09:00pm - - - - - NNW 13 17 7 9 - - 0.0
30/08:30pm - - - - - NNW 13 19 7 10 - - 0.0
30/08:00pm - - - - - NNW 13 17 7 9 - - 0.0
30/07:30pm - - - - - N 13 17 7 9 - - 0.0
30/07:00pm - - - - - NNW 13 15 7 8 - - 0.0
30/06:30pm - - - - - NNW 11 13 6 7 - - 0.0
30/06:00pm - - - - - NW 9 11 5 6 - - 0.0
30/05:30pm - - - - - WNW 9 17 5 9 - - 0.0
30/05:00pm - - - - - WNW 9 15 5 8 - - 0.0
30/04:30pm - - - - - W 13 20 7 11 - - 0.0
30/04:00pm - - - - - W 15 22 8 12 - - 0.0
30/03:30pm - - - - - NE 4 13 2 7 - - 0.0
30/03:00pm - - - - - WSW 13 22 7 12 - - 0.0
30/02:30pm - - - - - NW 9 26 5 14 - - 0.0
30/02:00pm - - - - - W 11 22 6 12 - - 0.0
30/01:30pm - - - - - WNW 13 20 7 11 - - 0.0
30/01:00pm - - - - - NW 13 20 7 11 - - 0.0
30/12:30pm - - - - - NW 9 24 5 13 - - 0.0
30/12:00pm - - - - - N 13 26 7 14 - - 0.0
30/11:30am - - - - - W 11 20 6 11 - - 0.0
30/11:00am - - - - - WNW 13 22 7 12 - - 0.0
30/10:30am - - - - - W 11 19 6 10 - - 0.0
30/10:00am - - - - - NW 9 15 5 8 - - 0.0
30/09:30am - - - - - WNW 7 17 4 9 - - 0.0
30/09:00am - - - - - NW 11 17 6 9 - - 0.0
30/08:30am - - - - - NNW 11 17 6 9 - - 0.0
30/08:00am - - - - - NNW 17 24 9 13 - - 0.0
30/07:30am - - - - - NNW 15 26 8 14 - - 0.0
30/07:00am - - - - - NNW 17 24 9 13 - - 0.0
30/06:30am - - - - - NNW 17 28 9 15 - - 0.0
30/06:00am - - - - - NNW 17 28 9 15 - - 0.0
30/05:30am - - - - - N 17 30 9 16 - - 0.0
30/05:00am - - - - - N 15 24 8 13 - - 0.0
30/04:30am - - - - - N 15 24 8 13 - - 0.0
30/04:00am - - - - - N 15 24 8 13 - - 0.0
30/03:30am - - - - - N 15 24 8 13 - - 0.0
30/03:00am - - - - - N 17 24 9 13 - - 0.0
30/02:30am - - - - - N 13 20 7 11 - - 0.0
30/02:00am - - - - - N 15 24 8 13 - - 0.0
30/01:30am - - - - - NE 11 15 6 8 - - 0.0
30/01:00am - - - - - NNE 13 20 7 11 - - 0.0
30/12:30am - - - - - NNE 11 20 6 11 - - 0.0
30/12:00am - - - - - NE 11 17 6 9 - - 0.0
 
Date/Time
EST
Temp
°C
App
Temp
°C
Dew
Point
Rel
Hum
%
Delta-T
°C
Wind Press
QNH
hPa
Press
MSL
hPa
Rain
since 9 am
mm
Dir
 
Spd
km/h
Gust
km/h
Spd
kts
Gust
kts
29/11:30pm - - - - - NE 9 17 5 9 - - 0.0
29/11:00pm - - - - - NNW 11 13 6 7 - - 0.0
29/10:30pm - - - - - NW 9 13 5 7 - - 0.0
29/10:00pm - - - - - ENE 7 11 4 6 - - 0.0
29/09:30pm - - - - - E 11 13 6 7 - - 0.0
29/09:00pm - - - - - ENE 9 11 5 6 - - 0.0
29/08:30pm - - - - - E 7 9 4 5 - - 0.0
29/08:00pm - - - - - NNE 6 9 3 5 - - 0.0
29/07:30pm - - - - - E 7 9 4 5 - - 0.0
29/07:00pm - - - - - SSW 6 6 3 3 - - 0.0
29/06:30pm - - - - - SSW 6 6 3 3 - - 0.0
29/06:00pm - - - - - SSW 7 9 4 5 - - 0.0
29/05:30pm - - - - - WSW 7 11 4 6 - - 0.0
29/05:00pm - - - - - WSW 11 15 6 8 - - 0.0
29/04:30pm - - - - - WSW 9 19 5 10 - - 0.0
29/04:00pm - - - - - SW 7 11 4 6 - - 0.0
29/03:30pm - - - - - WSW 15 22 8 12 - - 0.0
29/03:00pm - - - - - SSW 9 17 5 9 - - 0.0
29/02:30pm - - - - - W 13 22 7 12 - - 0.0
29/02:00pm - - - - - W 19 22 10 12 - - 0.0
29/01:30pm - - - - - NW 11 17 6 9 - - 0.0
29/01:00pm - - - - - WSW 11 24 6 13 - - 0.0
29/12:30pm - - - - - N 7 17 4 9 - - 0.0
29/12:00pm - - - - - NW 13 26 7 14 - - 0.0
29/11:30am - - - - - WSW 7 13 4 7 - - 0.0
29/11:00am - - - - - WNW 13 20 7 11 - - 0.0
29/10:30am - - - - - NW 13 20 7 11 - - 0.0
29/10:00am - - - - - N 9 20 5 11 - - 0.0
29/09:30am - - - - - NNW 13 26 7 14 - - 0.0
29/09:00am - - - - - N 13 22 7 12 - - 0.0
29/08:30am - - - - - N 13 22 7 12 - - 0.0
29/08:00am - - - - - NNE 11 19 6 10 - - 0.0
29/07:30am - - - - - NNE 7 13 4 7 - - 0.0
29/07:00am - - - - - E 7 11 4 6 - - 0.0
29/06:30am - - - - - E 6 7 3 4 - - 0.0
29/06:00am - - - - - NNE 7 11 4 6 - - 0.0
29/05:30am - - - - - NE 6 7 3 4 - - 0.0
29/05:00am - - - - - NE 9 15 5 8 - - 0.0
29/04:30am - - - - - NE 11 17 6 9 - - 0.0
29/04:00am - - - - - NNE 11 17 6 9 - - 0.0
29/03:30am - - - - - N 7 13 4 7 - - 0.0
29/03:00am - - - - - NNE 11 19 6 10 - - 0.0
29/02:30am - - - - - NNE 15 20 8 11 - - 0.0
29/02:00am - - - - - NNE 13 24 7 13 - - 0.0
29/01:30am - - - - - NNE 13 28 7 15 - - 0.0
29/01:00am - - - - - NE 13 22 7 12 - - 0.0
29/12:30am - - - - - NE 13 20 7 11 - - 0.0
29/12:00am - - - - - NNE 13 20 7 11 - - 0.0
 
Date/Time
EST
Temp
°C
App
Temp
°C
Dew
Point
Rel
Hum
%
Delta-T
°C
Wind Press
QNH
hPa
Press
MSL
hPa
Rain
since 9 am
mm
Dir
 
Spd
km/h
Gust
km/h
Spd
kts
Gust
kts
28/11:30pm - - - - - NNE 13 24 7 13 - - 0.0
28/11:00pm - - - - - NE 17 26 9 14 - - 0.0
28/10:30pm - - - - - NNE 13 22 7 12 - - 0.0
28/10:00pm - - - - - NE 11 17 6 9 - - 0.0
28/09:30pm - - - - - NNE 11 17 6 9 - - 0.0
28/09:00pm - - - - - ENE 9 15 5 8 - - 0.0
28/08:30pm - - - - - NE 7 9 4 5 - - 0.0

Other Formats:

Comma delimited format used in spreadsheet applications
http://www.bom.gov.au/fwo/IDQ60801/IDQ60801.95573.axf

JavaScript Object Notation format (JSON) in row-major order
http://www.bom.gov.au/fwo/IDQ60801/IDQ60801.95573.json